sensor_id;sensor_type;location;lat;lon;timestamp;pressure;altitude;pressure_sealevel;temperature;humidity
31162;BME280;17796;49.296;-117.656;2022-11-15T00:02:00;98100;;;-0.36287;60.42079
31162;BME280;17796;49.296;-117.656;2022-11-15T00:17:05;98100;;;-0.3019;60.18281
31162;BME280;17796;49.296;-117.656;2022-11-15T00:32:09;98200;;;0.11506;59.68939
31162;BME280;17796;49.296;-117.656;2022-11-15T00:47:13;98200;;;0.04139;58.31253
31162;BME280;17796;49.296;-117.656;2022-11-15T01:02:17;98200;;;-0.27999;59.28973
31162;BME280;17796;49.296;-117.656;2022-11-15T01:17:22;98200;;;-0.67154;60.28865
31162;BME280;17796;49.296;-117.656;2022-11-15T01:32:26;98200;;;-1.74584;63.63326
31162;BME280;17796;49.296;-117.656;2022-11-15T01:47:30;98200;;;-1.47274;63.09315
31162;BME280;17796;49.296;-117.656;2022-11-15T02:02:37;98200;;;-1.63152;64.30143
31162;BME280;17796;49.296;-117.656;2022-11-15T02:17:52;98200;;;-1.07802;62.48843
31162;BME280;17796;49.296;-117.656;2022-11-15T02:33:12;98200;;;-0.57278;60.53527
31162;BME280;17796;49.296;-117.656;2022-11-15T02:48:27;98200;;;-0.29015;60.24379
31162;BME280;17796;49.296;-117.656;2022-11-15T03:03:40;98300;;;-0.65884;59.86731
31162;BME280;17796;49.296;-117.656;2022-11-15T03:18:55;98300;;;-0.02403;56.55685
31162;BME280;17796;49.296;-117.656;2022-11-15T03:34:02;98300;;;-0.17456;57.54949
31162;BME280;17796;49.296;-117.656;2022-11-15T03:49:12;98300;;;-0.20473;56.65858
31162;BME280;17796;49.296;-117.656;2022-11-15T04:04:21;98300;;;-1.28602;59.61986
31162;BME280;17796;49.296;-117.656;2022-11-15T04:19:25;98300;;;-0.75061;56.02959
31162;BME280;17796;49.296;-117.656;2022-11-15T04:34:29;98300;;;-0.39272;56.82534
31162;BME280;17796;49.296;-117.656;2022-11-15T04:49:33;98300;;;-1.18249;58.05376
31162;BME280;17796;49.296;-117.656;2022-11-15T05:04:36;98300;;;-0.61851;56.32091
31162;BME280;17796;49.296;-117.656;2022-11-15T05:19:40;98300;;;-1.44733;58.54953
31162;BME280;17796;49.296;-117.656;2022-11-15T05:34:44;98300;;;-2.20185;60.88098
31162;BME280;17796;49.296;-117.656;2022-11-15T05:49:49;98400;;;-2.34348;61.37495
31162;BME280;17796;49.296;-117.656;2022-11-15T06:04:56;98400;;;-1.27935;57.96129
31162;BME280;17796;49.296;-117.656;2022-11-15T06:20:00;98400;;;-1.2965;57.86186
31162;BME280;17796;49.296;-117.656;2022-11-15T06:35:04;98400;;;-1.67344;59.23256
31162;BME280;17796;49.296;-117.656;2022-11-15T06:50:09;98400;;;-1.16757;57.50122
31162;BME280;17796;49.296;-117.656;2022-11-15T07:05:14;98400;;;-1.61342;59.04958
31162;BME280;17796;49.296;-117.656;2022-11-15T07:20:19;98400;;;-0.84048;56.75498
31162;BME280;17796;49.296;-117.656;2022-11-15T07:35:25;98400;;;-0.87859;58.32659
31162;BME280;17796;49.296;-117.656;2022-11-15T07:50:30;98400;;;-1.43209;58.91154
31162;BME280;17796;49.296;-117.656;2022-11-15T08:05:35;98400;;;-0.89383;56.63184
31162;BME280;17796;49.296;-117.656;2022-11-15T08:20:40;98400;;;-0.83921;56.53019
31162;BME280;17796;49.296;-117.656;2022-11-15T08:35:44;98400;;;-0.61343;57.19356
31162;BME280;17796;49.296;-117.656;2022-11-15T08:50:48;98400;;;-1.03102;57.57913
31162;BME280;17796;49.296;-117.656;2022-11-15T09:05:55;98400;;;-1.13454;58.22598
31162;BME280;17796;49.296;-117.656;2022-11-15T09:21:18;98400;;;-1.454;58.00183
31162;BME280;17796;49.296;-117.656;2022-11-15T09:36:23;98400;;;-0.64709;56.88474
31162;BME280;17796;49.296;-117.656;2022-11-15T09:51:33;98400;;;-0.93194;57.3976
31162;BME280;17796;49.296;-117.656;2022-11-15T10:06:42;98500;;;-1.00434;56.983
31162;BME280;17796;49.296;-117.656;2022-11-15T10:21:55;98500;;;-0.87668;56.79167
31162;BME280;17796;49.296;-117.656;2022-11-15T10:37:13;98500;;;-0.56643;56.60867
31162;BME280;17796;49.296;-117.656;2022-11-15T10:52:18;98500;;;-0.54579;55.81926
31162;BME280;17796;49.296;-117.656;2022-11-15T11:07:25;98500;;;-0.61882;56.43065
31162;BME280;17796;49.296;-117.656;2022-11-15T11:22:32;98500;;;-0.80682;55.98317
31162;BME280;17796;49.296;-117.656;2022-11-15T11:37:44;98500;;;-1.81284;58.67289
31162;BME280;17796;49.296;-117.656;2022-11-15T11:52:54;98500;;;-1.30348;58.09151
31162;BME280;17796;49.296;-117.656;2022-11-15T12:08:04;98500;;;-0.86589;56.97313
31162;BME280;17796;49.296;-117.656;2022-11-15T12:23:28;98500;;;-1.57341;58.52116
31162;BME280;17796;49.296;-117.656;2022-11-15T12:56:24;98500;;;-1.08119;57.20952
31162;BME280;17796;49.296;-117.656;2022-11-15T13:11:52;98500;;;-0.73823;56.55132
31162;BME280;17796;49.296;-117.656;2022-11-15T13:26:59;98500;;;-1.12533;57.30603
31162;BME280;17796;49.296;-117.656;2022-11-15T13:42:03;98500;;;-0.99513;56.86284
31162;BME280;17796;49.296;-117.656;2022-11-15T13:57:20;98500;;;-1.07389;56.79883
31162;BME280;17796;49.296;-117.656;2022-11-15T14:12:34;98500;;;-1.11231;57.21899
31162;BME280;17796;49.296;-117.656;2022-11-15T14:27:39;98500;;;-0.85318;56.05238
31162;BME280;17796;49.296;-117.656;2022-11-15T14:42:44;98500;;;-0.69631;56.50389
31162;BME280;17796;49.296;-117.656;2022-11-15T14:57:50;98500;;;-0.91511;56.12636
31162;BME280;17796;49.296;-117.656;2022-11-15T15:12:53;98500;;;-0.71536;55.69647
31162;BME280;17796;49.296;-117.656;2022-11-15T15:27:57;98500;;;-1.03769;56.43875
31162;BME280;17796;49.296;-117.656;2022-11-15T15:43:01;98500;;;-0.72235;55.86077
31162;BME280;17796;49.296;-117.656;2022-11-15T15:58:05;98600;;;-1.1898;56.56871
31162;BME280;17796;49.296;-117.656;2022-11-15T16:13:09;98600;;;-0.69663;53.83102
31162;BME280;17796;49.296;-117.656;2022-11-15T16:28:15;98600;;;-1.81507;57.6774
31162;BME280;17796;49.296;-117.656;2022-11-15T16:43:21;98600;;;-0.93607;56.427
31162;BME280;17796;49.296;-117.656;2022-11-15T16:58:25;98600;;;-0.93575;56.17477
31162;BME280;17796;49.296;-117.656;2022-11-15T17:13:28;98600;;;-0.87351;55.38226
31162;BME280;17796;49.296;-117.656;2022-11-15T17:28:32;98600;;;-0.31206;54.42884
31162;BME280;17796;49.296;-117.656;2022-11-15T17:43:37;98600;;;-0.33778;54.70248
31162;BME280;17796;49.296;-117.656;2022-11-15T17:58:45;98600;;;-0.84937;56.3597
31162;BME280;17796;49.296;-117.656;2022-11-15T18:13:51;98700;;;-1.46702;59.94931
31162;BME280;17796;49.296;-117.656;2022-11-15T18:29:01;98700;;;-0.44798;55.70282
31162;BME280;17796;49.296;-117.656;2022-11-15T18:44:05;98700;;;-0.27935;54.38622
31162;BME280;17796;49.296;-117.656;2022-11-15T18:59:09;98700;;;-0.26697;53.82617
31162;BME280;17796;49.296;-117.656;2022-11-15T19:14:14;98700;;;-0.44925;55.02734
31162;BME280;17796;49.296;-117.656;2022-11-15T19:29:19;98600;;;0.31417;53.83269
31162;BME280;17796;49.296;-117.656;2022-11-15T19:44:23;98600;;;-0.63407;56.16655
31162;BME280;17796;49.296;-117.656;2022-11-15T19:59:27;98600;;;0.28369;52.12505
31162;BME280;17796;49.296;-117.656;2022-11-15T20:14:31;98600;;;0.60474;52.85266
31162;BME280;17796;49.296;-117.656;2022-11-15T20:29:34;98600;;;0.7413;52.08612
31162;BME280;17796;49.296;-117.656;2022-11-15T20:44:38;98600;;;0.81719;52.19905
31162;BME280;17796;49.296;-117.656;2022-11-15T20:59:43;98600;;;0.74288;52.17437
31162;BME280;17796;49.296;-117.656;2022-11-15T21:14:48;98600;;;0.85498;52.83987
31162;BME280;17796;49.296;-117.656;2022-11-15T21:29:52;98600;;;-0.08215;55.55411
31162;BME280;17796;49.296;-117.656;2022-11-15T21:44:56;98600;;;0.88992;52.01415
31162;BME280;17796;49.296;-117.656;2022-11-15T22:00:02;98600;;;0.89881;52.27362
31162;BME280;17796;49.296;-117.656;2022-11-15T22:15:06;98600;;;0.92008;52.54455
31162;BME280;17796;49.296;-117.656;2022-11-15T22:30:11;98600;;;1.11316;51.70194
31162;BME280;17796;49.296;-117.656;2022-11-15T22:45:15;98600;;;1.00678;53.3417
31162;BME280;17796;49.296;-117.656;2022-11-15T23:00:18;98600;;;0.53742;54.34254
31162;BME280;17796;49.296;-117.656;2022-11-15T23:15:22;98600;;;0.59839;54.46065
31162;BME280;17796;49.296;-117.656;2022-11-15T23:30:26;98600;;;0.9366;53.05789
31162;BME280;17796;49.296;-117.656;2022-11-15T23:45:32;98700;;;0.87308;52.4381
